createdAt,value
2022-10-11T00:00:33.172Z,12.02
2022-10-11T00:03:00.586Z,11.91
2022-10-11T00:05:27.915Z,11.98
2022-10-11T00:07:56.304Z,12.24
2022-10-11T00:10:23.807Z,12.20
2022-10-11T00:12:51.268Z,12.08
2022-10-11T00:15:20.135Z,12.16
2022-10-11T00:17:47.273Z,12.17
2022-10-11T00:20:14.901Z,11.76
2022-10-11T00:22:42.622Z,11.48
2022-10-11T00:25:12.601Z,11.87
2022-10-11T00:27:39.882Z,11.96
2022-10-11T00:30:08.288Z,12.14
2022-10-11T00:32:36.626Z,11.75
2022-10-11T00:35:09.658Z,12.05
2022-10-11T00:37:38.411Z,11.68
2022-10-11T00:40:14.816Z,11.85
2022-10-11T00:42:44.196Z,11.72
2022-10-11T00:46:00.772Z,11.99
2022-10-11T00:48:33.194Z,12.02
2022-10-11T00:51:02.904Z,12.06
2022-10-11T00:53:32.234Z,11.84
2022-10-11T00:56:05.159Z,11.93
2022-10-11T00:58:35.060Z,12.00
2022-10-11T01:01:02.552Z,11.83
2022-10-11T01:03:33.414Z,12.05
2022-10-11T01:06:00.426Z,12.02
2022-10-11T01:08:27.577Z,11.83
2022-10-11T01:10:54.987Z,12.00
2022-10-11T01:13:35.690Z,11.36
2022-10-11T01:16:13.806Z,11.60
2022-10-11T01:18:47.784Z,11.56
2022-10-11T01:21:26.407Z,11.43
2022-10-11T01:24:13.146Z,11.72
2022-10-11T01:27:01.594Z,11.65
2022-10-11T01:29:41.308Z,11.42
2022-10-11T01:32:13.688Z,11.37
2022-10-11T01:34:47.830Z,11.21
2022-10-11T01:37:24.223Z,11.47
2022-10-11T01:39:56.386Z,11.67
2022-10-11T01:42:24.087Z,11.86
2022-10-11T01:44:51.875Z,11.74
2022-10-11T01:47:21.706Z,11.67
2022-10-11T01:49:53.931Z,11.40
2022-10-11T01:52:20.713Z,11.32
2022-10-11T01:55:10.295Z,11.40
2022-10-11T01:58:07.002Z,11.38
2022-10-11T02:00:45.175Z,11.41
2022-10-11T02:03:21.645Z,11.52
2022-10-11T02:05:55.311Z,11.34
2022-10-11T02:08:27.751Z,11.32
2022-10-11T02:11:00.990Z,11.34
2022-10-11T02:13:31.975Z,11.37
2022-10-11T02:16:02.399Z,11.25
2022-10-11T02:18:36.334Z,11.27
2022-10-11T02:21:07.406Z,11.27
2022-10-11T02:23:39.179Z,11.23
2022-10-11T02:26:08.971Z,11.04
2022-10-11T02:28:38.026Z,11.08
2022-10-11T02:31:06.868Z,11.36
2022-10-11T02:33:40.314Z,11.32
2022-10-11T02:36:14.172Z,11.25
2022-10-11T02:38:47.369Z,11.10
2022-10-11T02:41:21.468Z,11.14
2022-10-11T02:43:55.234Z,11.26
2022-10-11T02:46:22.336Z,11.17
2022-10-11T02:48:51.177Z,11.35
2022-10-11T02:51:18.407Z,11.24
2022-10-11T02:53:44.982Z,11.43
2022-10-11T02:56:11.568Z,11.18
2022-10-11T02:58:38.172Z,11.30
2022-10-11T03:01:04.899Z,11.25
2022-10-11T03:03:31.455Z,11.19
2022-10-11T03:06:00.149Z,11.23
2022-10-11T03:08:26.843Z,11.21
2022-10-11T03:10:53.432Z,11.14
2022-10-11T03:13:20.122Z,11.02
2022-10-11T03:15:49.421Z,11.16
2022-10-11T03:18:19.354Z,11.14
2022-10-11T03:20:46.159Z,11.17
2022-10-11T03:23:14.236Z,11.21
2022-10-11T03:25:40.820Z,11.36
2022-10-11T03:28:07.493Z,11.24
2022-10-11T03:30:34.105Z,11.30
2022-10-11T03:33:00.686Z,11.36
2022-10-11T03:35:27.339Z,11.37
2022-10-11T03:37:53.916Z,11.18
2022-10-11T03:40:21.830Z,11.09
2022-10-11T03:42:48.614Z,11.07
2022-10-11T03:45:15.221Z,10.90
2022-10-11T03:47:41.789Z,11.04
2022-10-11T03:50:09.766Z,11.29
2022-10-11T03:52:36.364Z,11.13
2022-10-11T03:55:03.234Z,11.07
2022-10-11T03:57:31.215Z,11.22
2022-10-11T03:59:57.764Z,11.23
2022-10-11T04:02:24.613Z,11.33
2022-10-11T04:04:51.246Z,11.35
2022-10-11T04:07:17.799Z,11.22
2022-10-11T04:09:44.386Z,11.12
2022-10-11T04:12:11.007Z,11.05
2022-10-11T04:14:38.978Z,11.23
2022-10-11T04:17:05.510Z,11.38
2022-10-11T04:19:32.113Z,11.23
2022-10-11T04:21:58.650Z,11.21
2022-10-11T04:24:25.208Z,11.26
2022-10-11T04:26:51.875Z,11.10
2022-10-11T04:29:18.447Z,10.84
2022-10-11T04:31:46.375Z,10.81
2022-10-11T04:34:12.951Z,10.81
2022-10-11T04:36:39.499Z,10.81
2022-10-11T04:39:06.435Z,10.50
2022-10-11T04:41:33.307Z,10.42
2022-10-11T04:44:00.315Z,10.59
2022-10-11T04:46:27.072Z,10.48
2022-10-11T04:48:55.732Z,10.32
2022-10-11T04:51:22.630Z,10.35
2022-10-11T04:53:49.273Z,10.64
2022-10-11T04:56:16.380Z,10.55
2022-10-11T04:58:42.929Z,10.68
2022-10-11T05:01:10.435Z,10.58
2022-10-11T05:03:37.616Z,10.55
2022-10-11T05:06:06.351Z,10.58
2022-10-11T05:08:33.352Z,10.45
2022-10-11T05:11:01.898Z,10.47
2022-10-11T05:13:30.142Z,10.57
2022-10-11T05:15:57.103Z,10.66
2022-10-11T05:18:24.343Z,10.58
2022-10-11T05:20:58.903Z,10.45
2022-10-11T05:23:27.091Z,10.36
2022-10-11T05:25:53.672Z,10.40
2022-10-11T05:28:20.282Z,10.75
2022-10-11T05:30:46.926Z,10.65
2022-10-11T05:33:13.506Z,10.60
2022-10-11T05:35:40.217Z,10.64
2022-10-11T05:38:06.898Z,10.72
2022-10-11T05:40:34.846Z,10.43
2022-10-11T05:43:01.395Z,10.57
2022-10-11T05:45:28.031Z,10.31
2022-10-11T05:47:54.607Z,10.14
2022-10-11T05:50:24.329Z,10.23
2022-10-11T05:52:51.545Z,10.31
2022-10-11T05:55:18.106Z,10.19
2022-10-11T05:57:46.009Z,10.15
2022-10-11T06:00:13.277Z,10.48
2022-10-11T06:02:40.183Z,10.51
2022-10-11T06:05:07.210Z,10.50
2022-10-11T06:07:35.696Z,10.52
2022-10-11T06:10:02.400Z,10.68
2022-10-11T06:12:29.020Z,10.84
2022-10-11T06:14:57.005Z,10.96
2022-10-11T06:17:28.337Z,10.68
2022-10-11T06:19:55.685Z,10.95
2022-10-11T06:22:22.292Z,10.96
2022-10-11T06:24:49.024Z,10.70
2022-10-11T06:27:15.695Z,10.83
2022-10-11T06:29:42.348Z,10.93
2022-10-11T06:32:10.341Z,11.23
2022-10-11T06:34:36.902Z,11.30
2022-10-11T06:37:03.502Z,11.40
2022-10-11T06:39:30.174Z,11.37
2022-10-11T06:41:56.770Z,11.41
2022-10-11T06:44:23.514Z,11.31
2022-10-11T06:46:50.107Z,11.51
2022-10-11T06:49:23.064Z,11.92
2022-10-11T06:51:50.565Z,11.90
2022-10-11T06:54:17.221Z,11.91
2022-10-11T06:56:43.884Z,11.95
2022-10-11T06:59:10.531Z,12.02
2022-10-11T07:01:37.196Z,12.19
2022-10-11T07:04:04.120Z,11.91
2022-10-11T07:06:37.307Z,12.33
2022-10-11T07:09:04.827Z,12.52
2022-10-11T07:11:31.625Z,12.53
2022-10-11T07:14:01.451Z,12.56
2022-10-11T07:16:28.560Z,12.68
2022-10-11T07:19:00.575Z,12.62
2022-10-11T07:21:28.578Z,12.48
2022-10-11T07:23:56.946Z,12.90
2022-10-11T07:26:23.608Z,13.03
2022-10-11T07:28:50.321Z,12.92
2022-10-11T07:31:19.878Z,12.96
2022-10-11T07:33:46.492Z,12.94
2022-10-11T07:36:13.717Z,13.03
2022-10-11T07:38:41.922Z,13.13
2022-10-11T07:41:12.741Z,13.18
2022-10-11T07:43:39.800Z,13.50
2022-10-11T07:46:07.826Z,13.49
2022-10-11T07:48:36.456Z,13.47
2022-10-11T07:51:05.286Z,13.32
2022-10-11T07:53:31.913Z,13.36
2022-10-11T07:56:00.264Z,13.35
2022-10-11T07:58:28.523Z,13.34
2022-10-11T08:00:55.466Z,13.59
2022-10-11T08:03:22.030Z,13.66
2022-10-11T08:05:48.716Z,13.76
2022-10-11T08:08:15.377Z,13.73
2022-10-11T08:10:41.993Z,13.88
2022-10-11T08:13:08.617Z,13.97
2022-10-11T08:15:36.573Z,14.06
2022-10-11T08:18:03.264Z,14.26
2022-10-11T08:20:29.927Z,14.20
2022-10-11T08:22:57.051Z,14.21
2022-10-11T08:25:23.709Z,14.23
2022-10-11T08:27:50.412Z,14.38
2022-10-11T08:30:17.290Z,14.69
2022-10-11T08:32:45.294Z,14.68
2022-10-11T08:35:11.898Z,14.84
2022-10-11T08:37:38.577Z,14.81
2022-10-11T08:40:06.594Z,15.05
2022-10-11T08:42:37.064Z,15.10
2022-10-11T08:45:11.544Z,15.21
2022-10-11T08:47:42.687Z,15.39
2022-10-11T08:50:19.584Z,15.44
2022-10-11T08:52:50.811Z,15.45
2022-10-11T08:55:21.573Z,15.72
2022-10-11T08:57:52.478Z,15.77
2022-10-11T09:00:20.686Z,15.80
2022-10-11T09:03:07.983Z,15.83
2022-10-11T09:05:59.565Z,15.74
2022-10-11T09:08:33.188Z,15.96
2022-10-11T09:11:10.995Z,16.26
2022-10-11T09:13:58.820Z,16.20
2022-10-11T09:16:34.832Z,16.18
2022-10-11T09:19:49.088Z,16.30
2022-10-11T09:22:30.345Z,16.37
2022-10-11T09:25:12.003Z,16.56
2022-10-11T09:28:01.748Z,16.74
2022-10-11T09:30:29.352Z,16.93
2022-10-11T09:33:08.749Z,16.95
2022-10-11T09:35:38.347Z,17.04
2022-10-11T09:38:15.419Z,16.99
2022-10-11T09:40:52.970Z,17.08
2022-10-11T09:43:19.736Z,16.98
2022-10-11T09:45:49.480Z,17.09
2022-10-11T09:48:20.513Z,17.23
2022-10-11T09:50:48.681Z,17.17
2022-10-11T09:53:16.740Z,17.01
2022-10-11T09:55:49.930Z,17.24
2022-10-11T09:58:28.480Z,17.37
2022-10-11T10:01:06.604Z,17.45
2022-10-11T10:03:35.554Z,17.71
2022-10-11T10:06:08.696Z,17.83
2022-10-11T10:08:37.532Z,17.77
2022-10-11T10:11:06.127Z,17.66
2022-10-11T10:13:44.872Z,17.64
2022-10-11T10:16:23.923Z,17.72
2022-10-11T10:18:53.490Z,17.78
2022-10-11T10:21:27.332Z,17.66
2022-10-11T10:23:56.458Z,17.38
2022-10-11T10:26:25.287Z,17.53
2022-10-11T10:29:14.283Z,17.64
2022-10-11T10:34:45.610Z,17.64
2022-10-11T10:37:22.895Z,17.58
2022-10-11T10:39:55.846Z,17.69
2022-10-11T10:42:22.544Z,17.62
2022-10-11T10:44:53.665Z,17.71
2022-10-11T10:47:38.167Z,17.93
2022-10-11T10:50:08.763Z,18.15
2022-10-11T10:52:47.704Z,17.91
2022-10-11T10:55:23.295Z,18.01
2022-10-11T10:58:04.100Z,18.00
2022-10-11T11:00:38.790Z,18.12
2022-10-11T11:03:11.085Z,18.25
2022-10-11T11:05:45.663Z,18.25
2022-10-11T11:08:16.425Z,18.58
2022-10-11T11:10:53.338Z,18.59
2022-10-11T11:13:28.835Z,18.54
2022-10-11T11:16:06.866Z,18.46
2022-10-11T11:18:40.954Z,18.60
2022-10-11T11:21:27.036Z,18.66
2022-10-11T11:24:02.942Z,18.62
2022-10-11T11:26:39.724Z,18.98
2022-10-11T11:29:19.600Z,19.16
2022-10-11T11:32:05.149Z,19.15
2022-10-11T11:34:37.024Z,19.24
2022-10-11T11:37:06.421Z,19.31
2022-10-11T11:39:35.618Z,19.43
2022-10-11T11:42:12.125Z,19.48
2022-10-11T11:44:43.407Z,19.34
2022-10-11T11:47:14.501Z,19.28
2022-10-11T11:49:45.480Z,19.12
2022-10-11T11:52:20.242Z,19.36
2022-10-11T11:54:56.572Z,19.44
2022-10-11T11:57:39.654Z,19.14
2022-10-11T12:00:13.411Z,19.31
2022-10-11T12:02:50.759Z,19.68
2022-10-11T12:05:22.399Z,19.60
2022-10-11T12:07:54.288Z,19.85
2022-10-11T12:10:36.106Z,19.96
2022-10-11T12:13:32.412Z,20.03
2022-10-11T12:16:08.081Z,19.97
2022-10-11T12:18:47.102Z,19.71
2022-10-11T12:21:22.212Z,19.74
2022-10-11T12:23:50.578Z,20.00
2022-10-11T12:26:42.480Z,19.61
2022-10-11T12:29:44.156Z,19.72
2022-10-11T12:32:49.278Z,19.64
2022-10-11T12:36:05.542Z,19.91
2022-10-11T12:38:37.403Z,19.71
2022-10-11T12:41:38.659Z,19.84
2022-10-11T12:44:20.484Z,19.62
2022-10-11T12:47:26.438Z,19.78
2022-10-11T12:50:07.209Z,19.75
2022-10-11T12:52:48.785Z,19.91
2022-10-11T12:55:33.290Z,19.73
2022-10-11T12:58:17.613Z,19.84
2022-10-11T13:01:09.441Z,19.73
2022-10-11T13:03:43.787Z,19.80
2022-10-11T13:06:15.988Z,20.00
2022-10-11T13:08:48.002Z,20.31
2022-10-11T13:11:21.522Z,20.25
2022-10-11T13:13:53.533Z,20.47
2022-10-11T13:16:23.600Z,20.25
2022-10-11T13:18:56.198Z,20.14
2022-10-11T13:21:31.425Z,20.12
2022-10-11T13:24:10.039Z,20.32
2022-10-11T13:26:40.029Z,20.27
2022-10-11T13:29:16.479Z,19.96
2022-10-11T13:31:46.995Z,20.26
2022-10-11T13:34:19.732Z,20.52
2022-10-11T13:36:56.514Z,20.68
2022-10-11T13:39:31.084Z,20.40
2022-10-11T13:42:01.546Z,20.75
2022-10-11T13:44:32.778Z,20.73
2022-10-11T13:47:04.678Z,20.75
2022-10-11T13:49:33.996Z,20.91
2022-10-11T13:52:02.170Z,20.99
2022-10-11T13:54:57.390Z,20.69
2022-10-11T13:57:34.481Z,20.95
2022-10-11T14:00:02.778Z,20.93
2022-10-11T14:02:33.171Z,20.64
2022-10-11T14:05:00.484Z,20.74
2022-10-11T14:07:39.048Z,20.42
2022-10-11T14:10:21.020Z,20.38
2022-10-11T14:13:02.951Z,20.36
2022-10-11T14:15:35.189Z,20.49
2022-10-11T14:18:26.515Z,20.65
2022-10-11T14:21:17.265Z,20.84
2022-10-11T14:23:45.504Z,20.66
2022-10-11T14:26:18.487Z,21.01
2022-10-11T14:29:02.690Z,20.81
2022-10-11T14:31:30.316Z,20.81
2022-10-11T14:33:59.365Z,20.65
2022-10-11T14:36:27.475Z,20.51
2022-10-11T14:38:58.150Z,20.47
2022-10-11T14:41:28.781Z,20.43
2022-10-11T14:43:58.006Z,20.16
2022-10-11T14:46:26.316Z,20.23
2022-10-11T14:48:56.338Z,19.99
2022-10-11T14:51:30.181Z,20.08
2022-10-11T14:54:04.132Z,19.71
2022-10-11T14:56:39.143Z,19.79
2022-10-11T14:59:14.554Z,19.83
2022-10-11T15:02:04.320Z,19.93
2022-10-11T15:04:33.012Z,19.78
2022-10-11T15:07:00.837Z,19.75
2022-10-11T15:09:34.590Z,19.72
2022-10-11T15:12:08.155Z,20.09
2022-10-11T15:14:40.569Z,19.87
2022-10-11T15:17:12.269Z,19.83
2022-10-11T15:19:44.206Z,20.07
2022-10-11T15:22:12.038Z,20.10
2022-10-11T15:24:47.053Z,19.64
2022-10-11T15:27:17.983Z,19.69
2022-10-11T15:29:47.557Z,19.59
2022-10-11T15:32:15.335Z,19.51
2022-10-11T15:34:42.048Z,19.40
2022-10-11T15:37:08.644Z,19.24
2022-10-11T15:39:35.241Z,19.20
2022-10-11T15:42:02.122Z,19.05
2022-10-11T15:44:28.861Z,18.94
2022-10-11T15:46:56.977Z,19.01
2022-10-11T15:49:24.443Z,18.79
2022-10-11T15:51:51.220Z,18.79
2022-10-11T15:54:18.100Z,18.64
2022-10-11T15:56:44.916Z,18.64
2022-10-11T15:59:11.770Z,18.55
2022-10-11T16:01:38.580Z,18.50
2022-10-11T16:04:06.677Z,18.53
2022-10-11T16:06:33.374Z,18.44
2022-10-11T16:09:00.030Z,18.36
2022-10-11T16:11:26.583Z,18.35
2022-10-11T16:13:53.217Z,18.12
2022-10-11T16:16:19.876Z,18.00
2022-10-11T16:18:49.828Z,18.01
2022-10-11T16:21:21.110Z,17.65
2022-10-11T16:23:49.566Z,17.58
2022-10-11T16:26:16.578Z,17.66
2022-10-11T16:28:46.731Z,17.77
2022-10-11T16:31:15.343Z,17.31
2022-10-11T16:33:42.420Z,17.43
2022-10-11T16:36:10.280Z,17.13
2022-10-11T16:38:38.348Z,16.60
2022-10-11T16:41:06.123Z,16.55
2022-10-11T16:43:36.202Z,16.40
2022-10-11T16:46:03.248Z,16.30
2022-10-11T16:48:30.285Z,16.36
2022-10-11T16:51:05.254Z,16.75
2022-10-11T16:53:33.461Z,16.39
2022-10-11T16:56:05.319Z,16.33
2022-10-11T16:58:32.349Z,16.34
2022-10-11T17:00:59.294Z,16.27
2022-10-11T17:03:26.096Z,16.21
2022-10-11T17:05:52.840Z,15.98
2022-10-11T17:08:19.636Z,15.99
2022-10-11T17:10:52.131Z,15.92
2022-10-11T17:13:20.298Z,15.80
2022-10-11T17:15:47.628Z,15.80
2022-10-11T17:18:14.446Z,15.78
2022-10-11T17:20:41.100Z,15.80
2022-10-11T17:23:07.745Z,15.87
2022-10-11T17:25:41.515Z,15.49
2022-10-11T17:28:08.252Z,15.30
2022-10-11T17:30:36.638Z,15.47
2022-10-11T17:33:03.798Z,15.68
2022-10-11T17:35:31.846Z,15.70
2022-10-11T17:38:02.308Z,15.58
2022-10-11T17:40:31.902Z,15.63
2022-10-11T17:42:58.571Z,15.64
2022-10-11T17:45:25.249Z,15.90
2022-10-11T17:47:53.303Z,15.56
2022-10-11T17:50:19.991Z,15.34
2022-10-11T17:52:46.634Z,15.21
2022-10-11T17:55:13.274Z,15.26
2022-10-11T17:57:39.845Z,15.05
2022-10-11T18:00:07.778Z,14.90
2022-10-11T18:02:37.610Z,14.83
2022-10-11T18:05:07.262Z,14.81
2022-10-11T18:07:34.721Z,14.64
2022-10-11T18:10:01.454Z,14.50
2022-10-11T18:12:28.159Z,14.62
2022-10-11T18:14:55.193Z,14.77
2022-10-11T18:17:21.852Z,14.82
2022-10-11T18:19:48.443Z,14.96
2022-10-11T18:22:16.696Z,14.73
2022-10-11T18:24:43.798Z,14.89
2022-10-11T18:27:10.395Z,14.84
2022-10-11T18:29:37.072Z,14.93
2022-10-11T18:32:03.765Z,14.96
2022-10-11T18:34:30.428Z,14.95
2022-10-11T18:36:57.054Z,14.86
2022-10-11T18:39:25.086Z,14.92
2022-10-11T18:41:51.667Z,14.92
2022-10-11T18:44:18.242Z,14.83
2022-10-11T18:46:45.043Z,14.74
2022-10-11T18:49:12.484Z,14.74
2022-10-11T18:51:41.013Z,14.73
2022-10-11T18:54:10.279Z,14.60
2022-10-11T18:56:38.352Z,14.55
2022-10-11T18:59:05.629Z,14.43
2022-10-11T19:01:34.078Z,14.17
2022-10-11T19:04:01.764Z,14.05
2022-10-11T19:06:30.433Z,14.15
2022-10-11T19:09:00.673Z,14.30
2022-10-11T19:11:27.795Z,14.31
2022-10-11T19:13:57.332Z,14.11
2022-10-11T19:16:24.966Z,14.05
2022-10-11T19:18:52.260Z,14.22
2022-10-11T19:21:19.270Z,14.32
2022-10-11T19:23:47.397Z,14.25
2022-10-11T19:26:16.366Z,13.99
2022-10-11T19:28:43.671Z,13.77
2022-10-11T19:31:14.524Z,13.88
2022-10-11T19:33:41.087Z,13.57
2022-10-11T19:36:08.274Z,13.61
2022-10-11T19:38:35.816Z,13.64
2022-10-11T19:41:03.681Z,13.68
2022-10-11T19:43:30.377Z,13.53
2022-10-11T19:45:59.952Z,13.38
2022-10-11T19:48:28.051Z,13.37
2022-10-11T19:51:01.679Z,13.36
2022-10-11T19:53:28.230Z,13.27
2022-10-11T19:55:54.774Z,13.40
2022-10-11T19:58:21.373Z,13.25
2022-10-11T20:00:47.953Z,13.45
2022-10-11T20:03:14.544Z,13.39
2022-10-11T20:05:42.469Z,13.44
2022-10-11T20:08:09.011Z,13.33
2022-10-11T20:10:35.572Z,13.31
2022-10-11T20:13:02.157Z,13.13
2022-10-11T20:15:28.694Z,13.17
2022-10-11T20:17:55.246Z,13.05
2022-10-11T20:20:21.814Z,12.90
2022-10-11T20:22:49.788Z,12.99
2022-10-11T20:25:16.535Z,13.24
2022-10-11T20:27:43.110Z,13.17
2022-10-11T20:30:11.403Z,13.25
2022-10-11T20:32:37.994Z,13.26
2022-10-11T20:35:05.389Z,13.29
2022-10-11T20:37:34.811Z,13.34
2022-10-11T20:40:02.941Z,13.37
2022-10-11T20:42:29.997Z,13.25
2022-10-11T20:44:56.704Z,13.16
2022-10-11T20:47:23.300Z,13.23
2022-10-11T20:49:49.979Z,12.95
2022-10-11T20:52:16.610Z,13.04
2022-10-11T20:54:43.170Z,13.19
2022-10-11T20:57:11.261Z,12.99
2022-10-11T20:59:37.890Z,12.93
2022-10-11T21:02:04.511Z,12.86
2022-10-11T21:04:31.187Z,12.90
2022-10-11T21:06:57.812Z,12.79
2022-10-11T21:09:24.440Z,13.01
2022-10-11T21:11:51.028Z,12.75
2022-10-11T21:14:19.009Z,13.07
2022-10-11T21:16:45.601Z,12.93
2022-10-11T21:19:14.114Z,13.14
2022-10-11T21:21:40.767Z,13.10
2022-10-11T21:24:07.414Z,13.17
2022-10-11T21:26:34.132Z,13.15
2022-10-11T21:29:01.916Z,13.15
2022-10-11T21:31:34.092Z,13.11
2022-10-11T21:34:01.767Z,13.00
2022-10-11T21:36:28.385Z,13.20
2022-10-11T21:38:55.138Z,13.23
2022-10-11T21:41:23.520Z,13.28
2022-10-11T21:43:50.080Z,13.15
2022-10-11T21:46:18.575Z,13.22
2022-10-11T21:48:47.182Z,13.09
2022-10-11T21:51:15.708Z,13.13
2022-10-11T21:53:42.568Z,13.12
2022-10-11T21:56:09.213Z,13.09
2022-10-11T21:58:35.826Z,13.05
2022-10-11T22:01:02.505Z,12.98
2022-10-11T22:03:29.193Z,12.94
2022-10-11T22:05:57.194Z,13.11
2022-10-11T22:08:23.857Z,13.16
2022-10-11T22:10:53.719Z,13.06
2022-10-11T22:13:20.380Z,12.95
2022-10-11T22:15:47.041Z,13.07
2022-10-11T22:18:13.622Z,12.95
2022-10-11T22:20:40.370Z,12.85
2022-10-11T22:23:08.306Z,12.95
2022-10-11T22:25:35.315Z,12.91
2022-10-11T22:28:01.884Z,12.94
2022-10-11T22:30:28.591Z,12.90
2022-10-11T22:32:55.194Z,12.84
2022-10-11T22:35:21.815Z,12.81
2022-10-11T22:37:48.354Z,12.79
2022-10-11T22:40:17.056Z,12.57
2022-10-11T22:42:43.840Z,12.67
2022-10-11T22:45:11.028Z,12.62
2022-10-11T22:47:38.116Z,12.55
2022-10-11T22:50:05.622Z,12.61
2022-10-11T22:52:32.182Z,12.67
2022-10-11T22:54:58.782Z,12.74
2022-10-11T22:57:26.687Z,12.65
2022-10-11T22:59:53.256Z,12.64
2022-10-11T23:02:19.820Z,12.47
2022-10-11T23:04:46.374Z,12.51
2022-10-11T23:07:12.933Z,12.61
2022-10-11T23:09:39.509Z,12.69
2022-10-11T23:12:06.756Z,12.72
2022-10-11T23:14:34.719Z,12.74
2022-10-11T23:17:01.301Z,12.65
2022-10-11T23:19:27.870Z,12.52
2022-10-11T23:21:54.484Z,12.73
2022-10-11T23:24:21.115Z,12.58
2022-10-11T23:26:47.664Z,12.52
2022-10-11T23:29:14.240Z,12.55
2022-10-11T23:31:42.168Z,12.68
2022-10-11T23:34:08.756Z,12.75
2022-10-11T23:36:35.297Z,12.65
2022-10-11T23:39:01.872Z,12.61
2022-10-11T23:41:29.538Z,12.35
2022-10-11T23:43:57.012Z,12.43
2022-10-11T23:46:24.128Z,12.48
2022-10-11T23:48:52.039Z,12.56
2022-10-11T23:51:18.652Z,12.58
2022-10-11T23:53:45.284Z,12.52
2022-10-11T23:56:12.224Z,12.43
2022-10-11T23:58:38.809Z,12.61
